Monday, October 16, 2017, 8:28 PM EDT
Back to Local

KPVD, Providence Green State Airport

Location: Warwick, RI, United States Lat: 41.733
Local Time: 8:28 PM EDT ( 0:28 GMT) Lon: -71.433
Time Zone: US/Eastern Elev: 55 ft

Show me the last for .
Show Decoded

2017-10-16 19:51 METAR KPVD 162351Z 35010KT 10SM FEW036 FEW140 BKN250 11/03 A3007 RMK AO2 SLP184
                 T01060033 10150 20106 51024 =
2017-10-16 18:51 METAR KPVD 162251Z 34013G19KT 10SM FEW036 FEW140 BKN250 12/03 A3006 RMK AO2
                 SLP178 T01170033 =
2017-10-16 17:51 METAR KPVD 162151Z 33008KT 10SM FEW036 FEW140 BKN250 12/04 A3002 RMK AO2 SLP167
                 T01220044 =
2017-10-16 16:51 METAR KPVD 162051Z 34013KT 10SM FEW036 SCT140 BKN170 OVC250 13/04 A3000 RMK AO2
                 SLP160 T01280044 53026 =
2017-10-16 15:51 METAR KPVD 161951Z 34008KT 10SM FEW036 SCT150 BKN170 OVC250 13/06 A2997 RMK AO2
                 SLP150 T01330056 =
2017-10-16 14:51 METAR KPVD 161851Z 36011KT 10SM FEW030 SCT160 OVC170 14/07 A2994 RMK AO2 SLP138
                 T01440067 =
2017-10-16 13:51 METAR KPVD 161751Z 32011KT 10SM FEW025 FEW030 OVC160 15/07 A2992 RMK AO2 SLP133
                 60000 T01500072 10161 20150 58005 =
2017-10-16 12:51 METAR KPVD 161651Z 30011KT 10SM FEW025 BKN031 OVC170 15/09 A2994 RMK AO2 SLP140
                 T01500089 =
2017-10-16 11:51 METAR KPVD 161551Z 33009KT 10SM FEW025 BKN033 OVC150 16/09 A2993 RMK AO2 SLP136
                 T01560089 =
2017-10-16 10:51 METAR KPVD 161451Z 30008KT 10SM FEW025 BKN160 BKN180 16/09 A2994 RMK AO2 SLP138
                 60000 T01560089 53021 =
2017-10-16 09:51 METAR KPVD 161351Z 31007G17KT 10SM FEW025 FEW090 FEW110 BKN150 16/09 A2991 RMK
                 AO2 SLP127 T01560089 =
2017-10-16 08:51 METAR KPVD 161251Z 32010KT 10SM FEW025 BKN130 BKN150 16/09 A2990 RMK AO2
                 RAB18E29 SLP125 P0000 T01560089 =
2017-10-16 07:51 METAR KPVD 161151Z 28008KT 10SM FEW020 FEW055 SCT120 BKN130 16/11 A2988 RMK AO2
                 SLP117 VIRGA E AND S 60000 T01560106 10217 20156 53028 =
2017-10-16 06:51 METAR KPVD 161051Z 30006KT 10SM FEW015 SCT085 BKN110 16/11 A2982 RMK AO2
                 RAB21E45 SLP099 P0000 T01610111 $ =
2017-10-16 05:51 METAR KPVD 160951Z 32005KT 10SM OVC075 17/15 A2980 RMK AO2 RAE06B12E25 SLP091
                 P0000 T01720150 $ =
2017-10-16 05:11 METAR KPVD 160911Z AUTO 30008KT 10SM SCT024 BKN070 OVC085 17/16 A2980 RMK AO2
                 RAE06 P0000 T01720156 $ =
2017-10-16 04:51 METAR KPVD 160851Z AUTO 30008G16KT 10SM -RA BKN020 BKN025 OVC090 18/16 A2979 RMK
                 AO2 RAE30B46 SLP088 P0000 60000 T01780161 53005 $ =
2017-10-16 03:51 METAR KPVD 160751Z AUTO 26008KT 10SM -RA OVC019 21/19 A2976 RMK AO2 RAB27 SLP077
                 P0000 T02060194 $ =
2017-10-16 02:51 METAR KPVD 160651Z AUTO 23008KT 10SM OVC020 21/19 A2976 RMK AO2 SLP077 T02110189
                 $ =
2017-10-16 01:51 METAR KPVD 160551Z AUTO 24011KT 10SM OVC018 21/19 A2978 RMK AO2 SLP082 T02110189
                 10211 20200 55002 $ =
2017-10-16 00:51 METAR KPVD 160451Z AUTO 23015G22KT 10SM OVC019 21/18 A2977 RMK AO2 PK WND
                 24027/0438 SLP079 T02060178 402220156 $ =
2017-10-15 23:51 METAR KPVD 160351Z 23018G26KT 10SM OVC018 21/18 A2977 RMK AO2 PK WND 21029/0323
                 SLP079 LAST CIG 015V022 T02060178 $ =
2017-10-15 22:51 METAR KPVD 160251Z 21016G24KT 10SM OVC015 21/18 A2978 RMK AO2 SLP084 CIG 014V023
                 T02060178 58009 $ =
2017-10-15 21:51 METAR KPVD 160151Z 22014G24KT 10SM OVC014 21/18 A2980 RMK AO2 PK WND 20029/0052
                 SLP091 CIG 013V018 T02060183 $ =
2017-10-15 20:51 METAR KPVD 160051Z 21016G29KT 10SM OVC016 21/18 A2980 RMK AO2 PK WND 21029/0046
                 SLP090 CIG 015V021 T02060178 $ =

Support USWX by starting your Amazon purchase here.